sensor_id;sensor_type;location;lat;lon;timestamp;P1;durP1;ratioP1;P2;durP2;ratioP2
142;SDS011;63667;49.046;8.468;2024-02-16T00:00:24;11.57;;;6.90;;
142;SDS011;63667;49.046;8.468;2024-02-16T00:02:51;16.90;;;7.10;;
142;SDS011;63667;49.046;8.468;2024-02-16T00:05:18;12.70;;;6.97;;
142;SDS011;63667;49.046;8.468;2024-02-16T00:07:44;18.57;;;7.00;;
142;SDS011;63667;49.046;8.468;2024-02-16T00:10:11;17.33;;;6.80;;
142;SDS011;63667;49.046;8.468;2024-02-16T00:12:38;20.97;;;8.00;;
142;SDS011;63667;49.046;8.468;2024-02-16T00:15:05;17.40;;;8.20;;
142;SDS011;63667;49.046;8.468;2024-02-16T00:17:32;20.17;;;8.00;;
142;SDS011;63667;49.046;8.468;2024-02-16T00:19:59;13.33;;;7.13;;
142;SDS011;63667;49.046;8.468;2024-02-16T00:22:25;16.40;;;8.30;;
142;SDS011;63667;49.046;8.468;2024-02-16T00:24:52;16.47;;;7.33;;
142;SDS011;63667;49.046;8.468;2024-02-16T00:27:18;13.50;;;6.70;;
142;SDS011;63667;49.046;8.468;2024-02-16T00:29:45;12.90;;;7.10;;
142;SDS011;63667;49.046;8.468;2024-02-16T00:32:14;14.10;;;6.90;;
142;SDS011;63667;49.046;8.468;2024-02-16T00:34:40;13.23;;;6.83;;
142;SDS011;63667;49.046;8.468;2024-02-16T00:37:07;16.70;;;6.80;;
142;SDS011;63667;49.046;8.468;2024-02-16T00:39:37;16.53;;;7.40;;
142;SDS011;63667;49.046;8.468;2024-02-16T00:42:10;18.10;;;7.30;;
142;SDS011;63667;49.046;8.468;2024-02-16T00:44:36;19.23;;;7.37;;
142;SDS011;63667;49.046;8.468;2024-02-16T00:47:03;20.27;;;7.93;;
142;SDS011;63667;49.046;8.468;2024-02-16T00:49:34;16.23;;;7.80;;
142;SDS011;63667;49.046;8.468;2024-02-16T00:52:00;22.90;;;11.37;;
142;SDS011;63667;49.046;8.468;2024-02-16T00:54:27;16.10;;;8.80;;
142;SDS011;63667;49.046;8.468;2024-02-16T00:56:54;14.83;;;7.80;;
142;SDS011;63667;49.046;8.468;2024-02-16T00:59:20;15.80;;;7.60;;
142;SDS011;63667;49.046;8.468;2024-02-16T01:01:47;16.63;;;7.87;;
142;SDS011;63667;49.046;8.468;2024-02-16T01:04:13;17.73;;;7.90;;
142;SDS011;63667;49.046;8.468;2024-02-16T01:06:39;13.57;;;7.33;;
142;SDS011;63667;49.046;8.468;2024-02-16T01:09:06;16.33;;;7.80;;
142;SDS011;63667;49.046;8.468;2024-02-16T01:11:32;14.37;;;7.03;;
142;SDS011;63667;49.046;8.468;2024-02-16T01:13:59;15.60;;;7.37;;
142;SDS011;63667;49.046;8.468;2024-02-16T01:16:25;14.03;;;7.40;;
142;SDS011;63667;49.046;8.468;2024-02-16T01:18:52;15.80;;;7.07;;
142;SDS011;63667;49.046;8.468;2024-02-16T01:21:18;18.00;;;7.20;;
142;SDS011;63667;49.046;8.468;2024-02-16T01:23:44;17.10;;;7.17;;
142;SDS011;63667;49.046;8.468;2024-02-16T01:26:11;20.37;;;7.27;;
142;SDS011;63667;49.046;8.468;2024-02-16T01:28:37;11.80;;;6.83;;
142;SDS011;63667;49.046;8.468;2024-02-16T01:31:04;19.20;;;7.90;;
142;SDS011;63667;49.046;8.468;2024-02-16T01:33:30;22.10;;;8.00;;
142;SDS011;63667;49.046;8.468;2024-02-16T01:36:01;19.37;;;8.00;;
142;SDS011;63667;49.046;8.468;2024-02-16T01:38:28;20.63;;;7.73;;
142;SDS011;63667;49.046;8.468;2024-02-16T01:40:54;14.53;;;7.30;;
142;SDS011;63667;49.046;8.468;2024-02-16T01:43:21;38.07;;;8.13;;
142;SDS011;63667;49.046;8.468;2024-02-16T01:45:47;25.93;;;7.93;;
142;SDS011;63667;49.046;8.468;2024-02-16T01:48:14;13.60;;;7.40;;
142;SDS011;63667;49.046;8.468;2024-02-16T01:50:43;19.50;;;7.70;;
142;SDS011;63667;49.046;8.468;2024-02-16T01:53:11;16.27;;;7.90;;
142;SDS011;63667;49.046;8.468;2024-02-16T01:55:38;15.10;;;8.17;;
142;SDS011;63667;49.046;8.468;2024-02-16T01:58:04;14.60;;;7.40;;
142;SDS011;63667;49.046;8.468;2024-02-16T02:00:31;13.50;;;7.50;;
142;SDS011;63667;49.046;8.468;2024-02-16T02:02:57;17.60;;;8.40;;
142;SDS011;63667;49.046;8.468;2024-02-16T02:05:23;15.47;;;8.53;;
142;SDS011;63667;49.046;8.468;2024-02-16T02:07:50;21.97;;;8.53;;
142;SDS011;63667;49.046;8.468;2024-02-16T02:10:17;14.77;;;8.03;;
142;SDS011;63667;49.046;8.468;2024-02-16T02:12:43;20.37;;;8.40;;
142;SDS011;63667;49.046;8.468;2024-02-16T02:15:10;16.87;;;8.60;;
142;SDS011;63667;49.046;8.468;2024-02-16T02:17:37;19.73;;;8.83;;
142;SDS011;63667;49.046;8.468;2024-02-16T02:20:04;16.57;;;9.10;;
142;SDS011;63667;49.046;8.468;2024-02-16T02:22:34;21.90;;;8.10;;
142;SDS011;63667;49.046;8.468;2024-02-16T02:25:01;15.63;;;8.70;;
142;SDS011;63667;49.046;8.468;2024-02-16T02:27:27;14.97;;;8.27;;
142;SDS011;63667;49.046;8.468;2024-02-16T02:29:53;22.93;;;7.67;;
142;SDS011;63667;49.046;8.468;2024-02-16T02:32:20;18.93;;;8.13;;
142;SDS011;63667;49.046;8.468;2024-02-16T02:34:46;14.30;;;7.83;;
142;SDS011;63667;49.046;8.468;2024-02-16T02:37:13;14.30;;;8.10;;
142;SDS011;63667;49.046;8.468;2024-02-16T02:39:39;14.23;;;8.40;;
142;SDS011;63667;49.046;8.468;2024-02-16T02:42:06;18.50;;;8.50;;
142;SDS011;63667;49.046;8.468;2024-02-16T02:44:33;14.03;;;8.30;;
142;SDS011;63667;49.046;8.468;2024-02-16T02:47:00;17.83;;;8.90;;
142;SDS011;63667;49.046;8.468;2024-02-16T02:49:26;18.80;;;8.87;;
142;SDS011;63667;49.046;8.468;2024-02-16T02:51:53;16.87;;;9.43;;
142;SDS011;63667;49.046;8.468;2024-02-16T02:54:19;20.20;;;8.97;;
142;SDS011;63667;49.046;8.468;2024-02-16T02:56:45;18.13;;;8.70;;
142;SDS011;63667;49.046;8.468;2024-02-16T02:59:12;15.67;;;9.00;;
142;SDS011;63667;49.046;8.468;2024-02-16T03:01:38;18.40;;;8.70;;
142;SDS011;63667;49.046;8.468;2024-02-16T03:04:04;19.80;;;8.40;;
142;SDS011;63667;49.046;8.468;2024-02-16T03:06:31;19.60;;;9.00;;
142;SDS011;63667;49.046;8.468;2024-02-16T03:08:57;23.10;;;8.33;;
142;SDS011;63667;49.046;8.468;2024-02-16T03:11:24;14.77;;;8.37;;
142;SDS011;63667;49.046;8.468;2024-02-16T03:13:51;18.80;;;9.30;;
142;SDS011;63667;49.046;8.468;2024-02-16T03:16:17;17.83;;;8.93;;
142;SDS011;63667;49.046;8.468;2024-02-16T03:18:43;19.67;;;8.80;;
142;SDS011;63667;49.046;8.468;2024-02-16T03:21:14;14.70;;;8.10;;
142;SDS011;63667;49.046;8.468;2024-02-16T03:23:44;18.17;;;8.37;;
142;SDS011;63667;49.046;8.468;2024-02-16T03:26:17;19.27;;;8.77;;
142;SDS011;63667;49.046;8.468;2024-02-16T03:28:47;16.63;;;8.70;;
142;SDS011;63667;49.046;8.468;2024-02-16T03:31:20;20.60;;;9.00;;
142;SDS011;63667;49.046;8.468;2024-02-16T03:33:48;14.17;;;8.10;;
142;SDS011;63667;49.046;8.468;2024-02-16T03:36:14;20.93;;;8.80;;
142;SDS011;63667;49.046;8.468;2024-02-16T03:38:42;18.13;;;8.90;;
142;SDS011;63667;49.046;8.468;2024-02-16T03:41:12;18.20;;;7.80;;
142;SDS011;63667;49.046;8.468;2024-02-16T03:43:38;18.77;;;8.63;;
142;SDS011;63667;49.046;8.468;2024-02-16T03:46:05;13.63;;;7.87;;
142;SDS011;63667;49.046;8.468;2024-02-16T03:48:32;18.73;;;8.53;;
142;SDS011;63667;49.046;8.468;2024-02-16T03:50:58;16.43;;;7.73;;
142;SDS011;63667;49.046;8.468;2024-02-16T03:53:24;21.70;;;8.43;;
142;SDS011;63667;49.046;8.468;2024-02-16T03:55:51;15.73;;;8.10;;
142;SDS011;63667;49.046;8.468;2024-02-16T03:58:17;20.63;;;8.10;;
142;SDS011;63667;49.046;8.468;2024-02-16T04:00:43;12.67;;;7.80;;
142;SDS011;63667;49.046;8.468;2024-02-16T04:03:10;15.53;;;8.50;;
142;SDS011;63667;49.046;8.468;2024-02-16T04:05:39;13.17;;;8.43;;
142;SDS011;63667;49.046;8.468;2024-02-16T04:08:06;13.10;;;8.37;;
142;SDS011;63667;49.046;8.468;2024-02-16T04:10:33;13.57;;;8.10;;
142;SDS011;63667;49.046;8.468;2024-02-16T04:13:00;16.77;;;8.40;;
142;SDS011;63667;49.046;8.468;2024-02-16T04:15:26;13.93;;;8.30;;
142;SDS011;63667;49.046;8.468;2024-02-16T04:17:52;16.37;;;8.97;;
142;SDS011;63667;49.046;8.468;2024-02-16T04:20:19;13.20;;;8.17;;
142;SDS011;63667;49.046;8.468;2024-02-16T04:22:45;18.90;;;8.10;;
142;SDS011;63667;49.046;8.468;2024-02-16T04:25:12;12.70;;;7.93;;
142;SDS011;63667;49.046;8.468;2024-02-16T04:27:38;17.87;;;8.83;;
142;SDS011;63667;49.046;8.468;2024-02-16T04:30:05;12.30;;;7.63;;
142;SDS011;63667;49.046;8.468;2024-02-16T04:32:32;15.93;;;7.40;;
142;SDS011;63667;49.046;8.468;2024-02-16T04:34:58;13.10;;;7.67;;
142;SDS011;63667;49.046;8.468;2024-02-16T04:37:25;13.23;;;8.03;;
142;SDS011;63667;49.046;8.468;2024-02-16T04:39:51;15.43;;;8.00;;
142;SDS011;63667;49.046;8.468;2024-02-16T04:42:18;17.27;;;8.43;;
142;SDS011;63667;49.046;8.468;2024-02-16T04:44:44;17.10;;;8.97;;
142;SDS011;63667;49.046;8.468;2024-02-16T04:47:11;14.43;;;8.03;;
142;SDS011;63667;49.046;8.468;2024-02-16T04:49:37;17.13;;;8.33;;
142;SDS011;63667;49.046;8.468;2024-02-16T04:52:03;18.17;;;8.97;;
142;SDS011;63667;49.046;8.468;2024-02-16T04:54:30;19.43;;;9.10;;
142;SDS011;63667;49.046;8.468;2024-02-16T04:56:56;15.73;;;8.80;;
142;SDS011;63667;49.046;8.468;2024-02-16T04:59:23;28.10;;;8.97;;
142;SDS011;63667;49.046;8.468;2024-02-16T05:01:49;15.20;;;9.27;;
142;SDS011;63667;49.046;8.468;2024-02-16T05:04:15;13.57;;;8.60;;
142;SDS011;63667;49.046;8.468;2024-02-16T05:06:42;15.73;;;8.87;;
142;SDS011;63667;49.046;8.468;2024-02-16T05:09:11;17.23;;;9.00;;
142;SDS011;63667;49.046;8.468;2024-02-16T05:11:42;14.97;;;8.27;;
142;SDS011;63667;49.046;8.468;2024-02-16T05:14:10;16.87;;;8.17;;
142;SDS011;63667;49.046;8.468;2024-02-16T05:16:45;14.27;;;8.20;;
142;SDS011;63667;49.046;8.468;2024-02-16T05:19:12;18.60;;;7.63;;
142;SDS011;63667;49.046;8.468;2024-02-16T05:21:38;20.83;;;8.73;;
142;SDS011;63667;49.046;8.468;2024-02-16T05:24:05;19.43;;;8.60;;
142;SDS011;63667;49.046;8.468;2024-02-16T05:26:31;15.00;;;8.63;;
142;SDS011;63667;49.046;8.468;2024-02-16T05:28:58;16.27;;;8.57;;
142;SDS011;63667;49.046;8.468;2024-02-16T05:31:24;13.63;;;8.40;;
142;SDS011;63667;49.046;8.468;2024-02-16T05:33:50;19.33;;;8.90;;
142;SDS011;63667;49.046;8.468;2024-02-16T05:36:20;17.80;;;8.73;;
142;SDS011;63667;49.046;8.468;2024-02-16T05:38:50;18.00;;;9.20;;
142;SDS011;63667;49.046;8.468;2024-02-16T05:41:17;17.00;;;9.03;;
142;SDS011;63667;49.046;8.468;2024-02-16T05:43:44;16.50;;;9.40;;
142;SDS011;63667;49.046;8.468;2024-02-16T05:46:17;19.47;;;8.67;;
142;SDS011;63667;49.046;8.468;2024-02-16T05:48:43;15.43;;;8.43;;
142;SDS011;63667;49.046;8.468;2024-02-16T05:51:10;21.00;;;9.30;;
142;SDS011;63667;49.046;8.468;2024-02-16T05:53:40;15.27;;;8.57;;
142;SDS011;63667;49.046;8.468;2024-02-16T05:56:06;20.63;;;8.30;;
142;SDS011;63667;49.046;8.468;2024-02-16T05:58:35;20.80;;;8.53;;
142;SDS011;63667;49.046;8.468;2024-02-16T06:01:02;14.57;;;8.07;;
142;SDS011;63667;49.046;8.468;2024-02-16T06:03:28;18.70;;;8.80;;
142;SDS011;63667;49.046;8.468;2024-02-16T06:05:54;21.70;;;8.80;;
142;SDS011;63667;49.046;8.468;2024-02-16T06:08:21;15.87;;;7.83;;
142;SDS011;63667;49.046;8.468;2024-02-16T06:10:47;18.33;;;8.57;;
142;SDS011;63667;49.046;8.468;2024-02-16T06:13:18;13.30;;;8.60;;
142;SDS011;63667;49.046;8.468;2024-02-16T06:15:45;16.30;;;7.63;;
142;SDS011;63667;49.046;8.468;2024-02-16T06:18:12;17.40;;;8.60;;
142;SDS011;63667;49.046;8.468;2024-02-16T06:20:38;14.60;;;8.50;;
142;SDS011;63667;49.046;8.468;2024-02-16T06:23:05;17.80;;;7.90;;
142;SDS011;63667;49.046;8.468;2024-02-16T06:25:31;19.83;;;8.60;;
142;SDS011;63667;49.046;8.468;2024-02-16T06:27:58;15.37;;;8.40;;
142;SDS011;63667;49.046;8.468;2024-02-16T06:30:24;15.20;;;8.73;;
142;SDS011;63667;49.046;8.468;2024-02-16T06:32:51;14.00;;;8.10;;
142;SDS011;63667;49.046;8.468;2024-02-16T06:35:22;16.83;;;8.50;;
142;SDS011;63667;49.046;8.468;2024-02-16T06:37:49;18.83;;;7.73;;
142;SDS011;63667;49.046;8.468;2024-02-16T06:40:16;17.77;;;8.37;;
142;SDS011;63667;49.046;8.468;2024-02-16T06:42:43;15.53;;;7.93;;
142;SDS011;63667;49.046;8.468;2024-02-16T06:45:09;18.10;;;8.50;;
142;SDS011;63667;49.046;8.468;2024-02-16T06:47:36;12.43;;;7.60;;
142;SDS011;63667;49.046;8.468;2024-02-16T06:50:03;13.07;;;8.00;;
142;SDS011;63667;49.046;8.468;2024-02-16T06:52:29;14.70;;;7.60;;
142;SDS011;63667;49.046;8.468;2024-02-16T06:54:56;21.67;;;8.60;;
142;SDS011;63667;49.046;8.468;2024-02-16T06:57:22;13.90;;;7.77;;
142;SDS011;63667;49.046;8.468;2024-02-16T06:59:50;15.00;;;8.00;;
142;SDS011;63667;49.046;8.468;2024-02-16T07:02:18;15.10;;;8.13;;
142;SDS011;63667;49.046;8.468;2024-02-16T07:04:45;11.93;;;7.30;;
142;SDS011;63667;49.046;8.468;2024-02-16T07:07:11;11.83;;;7.50;;
142;SDS011;63667;49.046;8.468;2024-02-16T07:09:38;15.00;;;8.20;;
142;SDS011;63667;49.046;8.468;2024-02-16T07:12:05;16.00;;;7.90;;
142;SDS011;63667;49.046;8.468;2024-02-16T07:14:32;11.10;;;7.10;;
142;SDS011;63667;49.046;8.468;2024-02-16T07:16:58;16.43;;;7.60;;
142;SDS011;63667;49.046;8.468;2024-02-16T07:19:25;16.50;;;7.13;;
142;SDS011;63667;49.046;8.468;2024-02-16T07:21:51;10.53;;;6.70;;
142;SDS011;63667;49.046;8.468;2024-02-16T07:24:17;10.87;;;6.60;;
142;SDS011;63667;49.046;8.468;2024-02-16T07:26:44;9.70;;;6.10;;
142;SDS011;63667;49.046;8.468;2024-02-16T07:29:10;11.27;;;6.37;;
142;SDS011;63667;49.046;8.468;2024-02-16T07:31:38;14.80;;;6.63;;
142;SDS011;63667;49.046;8.468;2024-02-16T07:34:05;12.50;;;6.63;;
142;SDS011;63667;49.046;8.468;2024-02-16T07:36:31;12.83;;;6.00;;
142;SDS011;63667;49.046;8.468;2024-02-16T07:39:01;12.40;;;6.57;;
142;SDS011;63667;49.046;8.468;2024-02-16T07:41:30;11.23;;;6.30;;
142;SDS011;63667;49.046;8.468;2024-02-16T07:43:56;16.47;;;6.30;;
142;SDS011;63667;49.046;8.468;2024-02-16T07:46:22;9.47;;;6.40;;
142;SDS011;63667;49.046;8.468;2024-02-16T07:48:49;9.73;;;5.37;;
142;SDS011;63667;49.046;8.468;2024-02-16T07:51:16;18.33;;;5.70;;
142;SDS011;63667;49.046;8.468;2024-02-16T07:53:43;16.17;;;7.47;;
142;SDS011;63667;49.046;8.468;2024-02-16T07:56:11;10.90;;;6.50;;
142;SDS011;63667;49.046;8.468;2024-02-16T07:58:40;17.60;;;9.67;;
142;SDS011;63667;49.046;8.468;2024-02-16T08:01:08;13.20;;;7.53;;
142;SDS011;63667;49.046;8.468;2024-02-16T08:03:36;11.53;;;7.80;;
142;SDS011;63667;49.046;8.468;2024-02-16T08:06:03;11.60;;;6.57;;
142;SDS011;63667;49.046;8.468;2024-02-16T08:08:30;19.93;;;6.90;;
142;SDS011;63667;49.046;8.468;2024-02-16T08:10:56;13.27;;;6.57;;
142;SDS011;63667;49.046;8.468;2024-02-16T08:13:22;15.43;;;7.10;;
142;SDS011;63667;49.046;8.468;2024-02-16T08:15:49;10.47;;;6.50;;
142;SDS011;63667;49.046;8.468;2024-02-16T08:18:17;12.57;;;5.87;;
142;SDS011;63667;49.046;8.468;2024-02-16T08:20:44;9.47;;;6.70;;
142;SDS011;63667;49.046;8.468;2024-02-16T08:23:10;7.77;;;5.77;;
142;SDS011;63667;49.046;8.468;2024-02-16T08:25:37;12.90;;;7.07;;
142;SDS011;63667;49.046;8.468;2024-02-16T08:28:03;9.00;;;6.17;;
142;SDS011;63667;49.046;8.468;2024-02-16T08:30:30;13.03;;;6.17;;
142;SDS011;63667;49.046;8.468;2024-02-16T08:32:56;9.90;;;5.20;;
142;SDS011;63667;49.046;8.468;2024-02-16T08:35:26;10.53;;;6.00;;
142;SDS011;63667;49.046;8.468;2024-02-16T08:37:53;8.83;;;5.70;;
142;SDS011;63667;49.046;8.468;2024-02-16T08:40:19;8.80;;;5.70;;
142;SDS011;63667;49.046;8.468;2024-02-16T08:42:46;11.90;;;6.00;;
142;SDS011;63667;49.046;8.468;2024-02-16T08:45:12;16.30;;;6.40;;
142;SDS011;63667;49.046;8.468;2024-02-16T08:47:40;11.80;;;5.97;;
142;SDS011;63667;49.046;8.468;2024-02-16T08:50:07;12.80;;;6.23;;
142;SDS011;63667;49.046;8.468;2024-02-16T08:52:33;14.70;;;6.20;;
142;SDS011;63667;49.046;8.468;2024-02-16T08:55:00;11.10;;;6.47;;
142;SDS011;63667;49.046;8.468;2024-02-16T08:57:26;13.97;;;6.57;;
142;SDS011;63667;49.046;8.468;2024-02-16T08:59:53;9.37;;;6.07;;
142;SDS011;63667;49.046;8.468;2024-02-16T09:02:21;16.13;;;6.97;;
142;SDS011;63667;49.046;8.468;2024-02-16T09:04:47;12.80;;;6.70;;
142;SDS011;63667;49.046;8.468;2024-02-16T09:07:14;9.20;;;5.67;;
142;SDS011;63667;49.046;8.468;2024-02-16T09:09:40;10.40;;;5.73;;
142;SDS011;63667;49.046;8.468;2024-02-16T09:12:10;9.73;;;5.73;;
142;SDS011;63667;49.046;8.468;2024-02-16T09:14:37;11.77;;;6.30;;
142;SDS011;63667;49.046;8.468;2024-02-16T09:17:03;13.30;;;7.07;;
142;SDS011;63667;49.046;8.468;2024-02-16T09:19:30;10.50;;;6.43;;
142;SDS011;63667;49.046;8.468;2024-02-16T09:21:56;12.53;;;6.67;;
142;SDS011;63667;49.046;8.468;2024-02-16T09:24:23;13.93;;;7.40;;
142;SDS011;63667;49.046;8.468;2024-02-16T09:26:54;13.80;;;7.33;;
142;SDS011;63667;49.046;8.468;2024-02-16T09:29:20;14.73;;;6.50;;
142;SDS011;63667;49.046;8.468;2024-02-16T09:31:48;12.90;;;7.20;;
142;SDS011;63667;49.046;8.468;2024-02-16T09:34:16;13.60;;;7.80;;
142;SDS011;63667;49.046;8.468;2024-02-16T09:36:43;12.03;;;7.80;;
142;SDS011;63667;49.046;8.468;2024-02-16T09:39:09;17.87;;;8.23;;
142;SDS011;63667;49.046;8.468;2024-02-16T09:41:35;18.90;;;8.30;;
142;SDS011;63667;49.046;8.468;2024-02-16T09:44:02;15.63;;;8.60;;
142;SDS011;63667;49.046;8.468;2024-02-16T09:46:29;15.03;;;7.40;;
142;SDS011;63667;49.046;8.468;2024-02-16T09:48:59;12.03;;;8.20;;
142;SDS011;63667;49.046;8.468;2024-02-16T09:51:28;13.83;;;7.77;;
142;SDS011;63667;49.046;8.468;2024-02-16T09:53:55;12.70;;;7.20;;
142;SDS011;63667;49.046;8.468;2024-02-16T09:56:21;11.50;;;7.10;;
142;SDS011;63667;49.046;8.468;2024-02-16T09:58:50;16.30;;;8.10;;
142;SDS011;63667;49.046;8.468;2024-02-16T10:01:17;12.70;;;7.40;;
142;SDS011;63667;49.046;8.468;2024-02-16T10:03:47;10.53;;;7.27;;
142;SDS011;63667;49.046;8.468;2024-02-16T10:06:14;16.03;;;7.23;;
142;SDS011;63667;49.046;8.468;2024-02-16T10:08:54;17.33;;;6.77;;
142;SDS011;63667;49.046;8.468;2024-02-16T10:11:23;19.27;;;8.03;;
142;SDS011;63667;49.046;8.468;2024-02-16T10:13:53;14.07;;;7.40;;
142;SDS011;63667;49.046;8.468;2024-02-16T10:16:20;13.60;;;7.17;;
142;SDS011;63667;49.046;8.468;2024-02-16T10:18:47;15.27;;;7.00;;
142;SDS011;63667;49.046;8.468;2024-02-16T10:21:13;18.37;;;7.13;;
142;SDS011;63667;49.046;8.468;2024-02-16T10:23:40;11.30;;;6.67;;
142;SDS011;63667;49.046;8.468;2024-02-16T10:26:06;19.73;;;8.00;;
142;SDS011;63667;49.046;8.468;2024-02-16T10:28:32;21.63;;;7.47;;
142;SDS011;63667;49.046;8.468;2024-02-16T10:30:59;11.40;;;6.37;;
142;SDS011;63667;49.046;8.468;2024-02-16T10:33:31;12.53;;;6.07;;
142;SDS011;63667;49.046;8.468;2024-02-16T10:35:59;7.53;;;5.13;;
142;SDS011;63667;49.046;8.468;2024-02-16T10:38:28;11.40;;;5.90;;
142;SDS011;63667;49.046;8.468;2024-02-16T10:40:56;13.13;;;5.90;;
142;SDS011;63667;49.046;8.468;2024-02-16T10:43:22;10.70;;;5.70;;
142;SDS011;63667;49.046;8.468;2024-02-16T10:45:49;8.50;;;5.37;;
142;SDS011;63667;49.046;8.468;2024-02-16T10:48:18;8.13;;;5.40;;
142;SDS011;63667;49.046;8.468;2024-02-16T10:50:44;20.00;;;6.00;;
142;SDS011;63667;49.046;8.468;2024-02-16T10:55:44;9.07;;;5.07;;
142;SDS011;63667;49.046;8.468;2024-02-16T10:58:11;7.80;;;5.00;;
142;SDS011;63667;49.046;8.468;2024-02-16T11:00:50;8.80;;;5.60;;
142;SDS011;63667;49.046;8.468;2024-02-16T11:03:17;11.33;;;5.27;;
142;SDS011;63667;49.046;8.468;2024-02-16T11:05:44;8.57;;;4.80;;
142;SDS011;63667;49.046;8.468;2024-02-16T11:08:14;9.13;;;4.90;;
142;SDS011;63667;49.046;8.468;2024-02-16T11:10:41;11.43;;;4.90;;
142;SDS011;63667;49.046;8.468;2024-02-16T11:13:07;9.30;;;5.00;;
142;SDS011;63667;49.046;8.468;2024-02-16T11:15:34;16.90;;;5.40;;
142;SDS011;63667;49.046;8.468;2024-02-16T11:18:02;6.57;;;4.63;;
142;SDS011;63667;49.046;8.468;2024-02-16T11:20:35;6.97;;;4.67;;
142;SDS011;63667;49.046;8.468;2024-02-16T11:23:06;7.27;;;4.57;;
142;SDS011;63667;49.046;8.468;2024-02-16T11:25:34;12.07;;;4.27;;
142;SDS011;63667;49.046;8.468;2024-02-16T11:28:01;7.47;;;4.60;;
142;SDS011;63667;49.046;8.468;2024-02-16T11:30:32;11.70;;;4.27;;
142;SDS011;63667;49.046;8.468;2024-02-16T11:32:59;12.30;;;4.37;;
142;SDS011;63667;49.046;8.468;2024-02-16T11:35:26;6.07;;;4.13;;
142;SDS011;63667;49.046;8.468;2024-02-16T11:37:52;10.40;;;4.07;;
142;SDS011;63667;49.046;8.468;2024-02-16T11:40:21;9.43;;;5.07;;
142;SDS011;63667;49.046;8.468;2024-02-16T11:42:47;5.20;;;3.80;;
142;SDS011;63667;49.046;8.468;2024-02-16T11:45:14;9.47;;;4.60;;
142;SDS011;63667;49.046;8.468;2024-02-16T11:47:41;8.13;;;4.40;;
142;SDS011;63667;49.046;8.468;2024-02-16T11:50:09;11.07;;;4.93;;
142;SDS011;63667;49.046;8.468;2024-02-16T11:52:38;7.03;;;3.90;;
142;SDS011;63667;49.046;8.468;2024-02-16T11:55:08;8.70;;;3.97;;
142;SDS011;63667;49.046;8.468;2024-02-16T11:57:35;7.13;;;4.30;;
142;SDS011;63667;49.046;8.468;2024-02-16T12:00:03;10.67;;;3.90;;
142;SDS011;63667;49.046;8.468;2024-02-16T12:02:36;15.50;;;4.53;;
142;SDS011;63667;49.046;8.468;2024-02-16T12:05:03;5.87;;;3.80;;
142;SDS011;63667;49.046;8.468;2024-02-16T12:07:30;10.93;;;4.50;;
142;SDS011;63667;49.046;8.468;2024-02-16T12:09:58;14.90;;;4.80;;
142;SDS011;63667;49.046;8.468;2024-02-16T12:12:25;13.50;;;4.43;;
142;SDS011;63667;49.046;8.468;2024-02-16T12:14:55;7.33;;;3.90;;
142;SDS011;63667;49.046;8.468;2024-02-16T12:17:22;9.50;;;4.70;;
142;SDS011;63667;49.046;8.468;2024-02-16T12:19:49;7.20;;;4.63;;
142;SDS011;63667;49.046;8.468;2024-02-16T12:22:17;7.87;;;3.80;;
142;SDS011;63667;49.046;8.468;2024-02-16T12:24:44;9.83;;;4.97;;
142;SDS011;63667;49.046;8.468;2024-02-16T12:27:11;6.83;;;4.60;;
142;SDS011;63667;49.046;8.468;2024-02-16T12:29:40;10.80;;;4.63;;
142;SDS011;63667;49.046;8.468;2024-02-16T12:32:07;12.50;;;4.03;;
142;SDS011;63667;49.046;8.468;2024-02-16T12:34:36;9.00;;;4.20;;
142;SDS011;63667;49.046;8.468;2024-02-16T12:37:06;8.10;;;4.27;;
142;SDS011;63667;49.046;8.468;2024-02-16T12:39:33;11.73;;;4.13;;
142;SDS011;63667;49.046;8.468;2024-02-16T12:41:59;7.27;;;4.00;;
142;SDS011;63667;49.046;8.468;2024-02-16T12:44:26;12.83;;;4.53;;
142;SDS011;63667;49.046;8.468;2024-02-16T12:46:52;7.67;;;4.27;;
142;SDS011;63667;49.046;8.468;2024-02-16T12:49:19;6.87;;;4.17;;
142;SDS011;63667;49.046;8.468;2024-02-16T12:51:48;6.70;;;3.70;;
142;SDS011;63667;49.046;8.468;2024-02-16T12:54:15;7.63;;;3.97;;
142;SDS011;63667;49.046;8.468;2024-02-16T12:56:47;4.50;;;3.80;;
142;SDS011;63667;49.046;8.468;2024-02-16T12:59:15;5.70;;;4.17;;
142;SDS011;63667;49.046;8.468;2024-02-16T13:01:42;6.93;;;3.80;;
142;SDS011;63667;49.046;8.468;2024-02-16T13:04:08;6.30;;;3.90;;
142;SDS011;63667;49.046;8.468;2024-02-16T13:06:35;6.07;;;3.70;;
142;SDS011;63667;49.046;8.468;2024-02-16T13:09:02;6.57;;;3.60;;
142;SDS011;63667;49.046;8.468;2024-02-16T13:11:29;4.97;;;3.43;;
142;SDS011;63667;49.046;8.468;2024-02-16T13:13:56;6.13;;;3.53;;
142;SDS011;63667;49.046;8.468;2024-02-16T13:16:25;8.80;;;3.60;;
142;SDS011;63667;49.046;8.468;2024-02-16T13:18:52;11.53;;;3.67;;
142;SDS011;63667;49.046;8.468;2024-02-16T13:21:18;4.90;;;3.43;;
142;SDS011;63667;49.046;8.468;2024-02-16T13:23:45;7.10;;;3.93;;
142;SDS011;63667;49.046;8.468;2024-02-16T13:26:14;7.20;;;2.73;;
142;SDS011;63667;49.046;8.468;2024-02-16T13:28:40;5.43;;;3.40;;
142;SDS011;63667;49.046;8.468;2024-02-16T13:31:07;7.90;;;3.13;;
142;SDS011;63667;49.046;8.468;2024-02-16T13:33:35;5.13;;;2.93;;
142;SDS011;63667;49.046;8.468;2024-02-16T13:36:02;13.40;;;3.60;;
142;SDS011;63667;49.046;8.468;2024-02-16T13:38:29;8.83;;;2.80;;
142;SDS011;63667;49.046;8.468;2024-02-16T13:40:55;6.20;;;3.40;;
142;SDS011;63667;49.046;8.468;2024-02-16T13:43:22;7.10;;;3.37;;
142;SDS011;63667;49.046;8.468;2024-02-16T13:45:52;5.13;;;3.23;;
142;SDS011;63667;49.046;8.468;2024-02-16T13:48:18;6.40;;;3.20;;
142;SDS011;63667;49.046;8.468;2024-02-16T13:50:46;5.67;;;2.83;;
142;SDS011;63667;49.046;8.468;2024-02-16T13:53:13;4.53;;;2.83;;
142;SDS011;63667;49.046;8.468;2024-02-16T13:55:43;5.80;;;2.70;;
142;SDS011;63667;49.046;8.468;2024-02-16T13:58:10;5.80;;;3.10;;
142;SDS011;63667;49.046;8.468;2024-02-16T14:00:36;6.23;;;3.20;;
142;SDS011;63667;49.046;8.468;2024-02-16T14:03:04;3.67;;;2.90;;
142;SDS011;63667;49.046;8.468;2024-02-16T14:05:31;4.00;;;3.10;;
142;SDS011;63667;49.046;8.468;2024-02-16T14:07:58;5.90;;;2.97;;
142;SDS011;63667;49.046;8.468;2024-02-16T14:10:24;7.60;;;2.97;;
142;SDS011;63667;49.046;8.468;2024-02-16T14:12:51;6.63;;;3.23;;
142;SDS011;63667;49.046;8.468;2024-02-16T14:15:17;7.40;;;2.93;;
142;SDS011;63667;49.046;8.468;2024-02-16T14:17:44;8.20;;;3.20;;
142;SDS011;63667;49.046;8.468;2024-02-16T14:20:11;3.67;;;3.10;;
142;SDS011;63667;49.046;8.468;2024-02-16T14:22:37;6.00;;;2.80;;
142;SDS011;63667;49.046;8.468;2024-02-16T14:25:04;4.37;;;2.97;;
142;SDS011;63667;49.046;8.468;2024-02-16T14:27:30;6.00;;;2.87;;
142;SDS011;63667;49.046;8.468;2024-02-16T14:29:57;4.77;;;2.73;;
142;SDS011;63667;49.046;8.468;2024-02-16T14:32:23;3.93;;;2.87;;
142;SDS011;63667;49.046;8.468;2024-02-16T14:34:50;5.33;;;2.50;;
142;SDS011;63667;49.046;8.468;2024-02-16T14:37:17;9.07;;;2.80;;
142;SDS011;63667;49.046;8.468;2024-02-16T14:39:43;6.77;;;2.50;;
142;SDS011;63667;49.046;8.468;2024-02-16T14:42:10;3.30;;;2.47;;
142;SDS011;63667;49.046;8.468;2024-02-16T14:44:36;8.13;;;3.47;;
142;SDS011;63667;49.046;8.468;2024-02-16T14:47:02;4.60;;;2.60;;
142;SDS011;63667;49.046;8.468;2024-02-16T14:49:29;6.37;;;2.77;;
142;SDS011;63667;49.046;8.468;2024-02-16T14:51:57;5.87;;;3.10;;
142;SDS011;63667;49.046;8.468;2024-02-16T14:54:23;6.53;;;2.97;;
142;SDS011;63667;49.046;8.468;2024-02-16T14:56:52;7.03;;;3.20;;
142;SDS011;63667;49.046;8.468;2024-02-16T14:59:19;3.60;;;2.80;;
142;SDS011;63667;49.046;8.468;2024-02-16T15:01:45;5.73;;;2.40;;
142;SDS011;63667;49.046;8.468;2024-02-16T15:04:12;3.70;;;2.80;;
142;SDS011;63667;49.046;8.468;2024-02-16T15:06:38;4.17;;;2.70;;